Time;durP1;ratioP1;P1;durP2;ratioP2;P2;SDS_P1;SDS_P2;PMS_P1;PMS_P2;Temp;Humidity;BMP_temperature;BMP_pressure;BME280_temperature;BME280_humidity;BME280_pressure;Samples;Min_cycle;Max_cycle;Signal;HPM_P1;HPM_P2
2023/01/15 00:00:20;;;;;;;1.23;0.63;;;;;;;9.62;97.94;98638.16;6177909;23;20027;-82
2023/01/15 00:02:47;;;;;;;1.85;0.70;;;;;;;9.61;98.07;98620.56;6151572;23;20047;-83
2023/01/15 00:05:14;;;;;;;1.67;0.93;;;;;;;9.62;98.24;98618.78;6150905;23;20020;-82
2023/01/15 00:07:41;;;;;;;1.08;0.65;;;;;;;9.63;98.20;98608.00;6151796;23;20467;-82
2023/01/15 00:10:08;;;;;;;0.90;0.90;;;;;;;9.64;98.10;98614.97;6151823;23;20075;-82
2023/01/15 00:12:35;;;;;;;1.17;0.70;;;;;;;9.64;98.56;98599.09;6152128;23;20020;-82
2023/01/15 00:15:01;;;;;;;6.15;1.40;;;;;;;9.65;98.36;98591.94;6177649;23;20460;-82
2023/01/15 00:17:28;;;;;;;5.25;1.23;;;;;;;9.67;98.30;98584.69;6177674;23;20052;-82
2023/01/15 00:19:55;;;;;;;2.63;0.75;;;;;;;9.69;98.49;98590.63;6175646;23;20025;-83
2023/01/15 00:22:22;;;;;;;2.22;0.80;;;;;;;9.69;98.19;98595.91;6128570;23;20012;-82
2023/01/15 00:27:39;;;;;;;6.20;1.23;;;;;;;9.71;98.37;98588.66;6150788;23;20025;-82
2023/01/15 00:30:10;;;;;;;2.30;0.82;;;;;;;9.70;98.33;98582.53;6176852;23;20392;-82
2023/01/15 00:32:39;;;;;;;2.35;0.82;;;;;;;9.72;98.52;98574.41;6152023;23;20016;-82
2023/01/15 00:35:06;;;;;;;2.40;0.70;;;;;;;9.73;97.89;98576.06;6152254;23;20063;-84
2023/01/15 00:37:33;;;;;;;1.50;0.52;;;;;;;9.72;97.97;98572.59;6151172;23;20016;-83
2023/01/15 00:40:02;;;;;;;5.90;0.77;;;;;;;9.74;98.10;98575.06;6153126;23;20044;-83
2023/01/15 00:42:29;;;;;;;2.53;0.40;;;;;;;9.73;98.60;98561.00;6126540;23;20027;-83
2023/01/15 00:44:56;;;;;;;3.88;0.75;;;;;;;9.75;98.52;98560.84;6128033;23;20441;-82
2023/01/15 00:47:23;;;;;;;2.55;0.70;;;;;;;9.76;98.33;98559.84;6151322;23;20031;-82
2023/01/15 00:49:50;;;;;;;2.38;0.90;;;;;;;9.76;98.45;98554.53;6176647;23;20511;-83
2023/01/15 00:52:17;;;;;;;2.50;0.90;;;;;;;9.77;98.61;98542.97;6103122;23;20025;-82
2023/01/15 00:54:44;;;;;;;4.82;1.63;;;;;;;9.76;98.42;98543.94;6176252;23;20082;-82
2023/01/15 00:57:11;;;;;;;6.82;2.08;;;;;;;9.76;98.84;98543.94;6151107;23;20091;-83
2023/01/15 00:59:37;;;;;;;4.05;1.50;;;;;;;9.77;98.75;98535.00;6176810;23;20016;-82
2023/01/15 01:02:04;;;;;;;3.13;1.20;;;;;;;9.77;98.93;98530.53;6151417;23;20025;-82
2023/01/15 01:04:31;;;;;;;1.80;0.80;;;;;;;9.76;99.28;98538.63;6152094;23;20432;-82
2023/01/15 01:06:58;;;;;;;1.70;0.93;;;;;;;9.77;98.85;98533.19;6126994;23;20027;-82
2023/01/15 01:09:25;;;;;;;0.77;0.60;;;;;;;9.76;99.08;98528.03;6176359;23;20047;-82
2023/01/15 01:11:51;;;;;;;1.17;0.70;;;;;;;9.79;99.09;98533.00;6127114;23;20024;-82
2023/01/15 01:14:18;;;;;;;1.90;0.70;;;;;;;9.79;99.00;98525.03;6176825;23;20028;-82
2023/01/15 01:16:45;;;;;;;0.80;0.60;;;;;;;9.79;98.87;98527.69;6174989;23;20024;-82
2023/01/15 01:19:18;;;;;;;1.08;0.70;;;;;;;9.77;99.22;98524.41;6127366;23;20285;-82
2023/01/15 01:21:46;;;;;;;0.73;0.73;;;;;;;9.80;99.19;98525.91;6152084;23;20107;-82
2023/01/15 01:24:15;;;;;;;3.50;1.60;;;;;;;9.79;99.31;98519.75;6149627;23;20488;-82
2023/01/15 01:26:44;;;;;;;1.50;0.80;;;;;;;9.81;99.35;98519.59;6175852;23;20776;-84
2023/01/15 01:29:12;;;;;;;1.00;0.65;;;;;;;9.81;99.26;98523.06;6128291;23;20012;-82
2023/01/15 01:31:39;;;;;;;0.50;0.50;;;;;;;9.81;99.17;98525.72;6101346;23;20047;-82
2023/01/15 01:34:06;;;;;;;2.42;0.50;;;;;;;9.83;99.19;98514.97;6151616;23;20350;-82
2023/01/15 01:36:34;;;;;;;0.55;0.55;;;;;;;9.84;99.29;98513.94;6152066;23;20099;-82
2023/01/15 01:39:02;;;;;;;0.85;0.60;;;;;;;9.84;98.97;98514.78;6152080;23;20457;-82
2023/01/15 01:41:30;;;;;;;4.22;0.80;;;;;;;9.84;99.50;98498.03;6125379;23;20025;-83
2023/01/15 01:44:27;;;;;;;0.70;0.60;;;;;;;9.84;99.15;98506.00;6126015;23;20104;-83
2023/01/15 01:46:53;;;;;;;0.65;0.40;;;;;;;9.85;99.14;98497.06;6047364;23;20860;-82
2023/01/15 01:49:20;;;;;;;0.32;0.32;;;;;;;9.87;98.70;98497.72;6063135;23;20022;-82
2023/01/15 01:51:57;;;;;;;4.90;0.60;;;;;;;9.84;98.85;98500.69;6085413;23;20030;-82
2023/01/15 01:54:24;;;;;;;1.10;0.50;;;;;;;9.90;98.68;98497.41;6062883;23;20026;-82
2023/01/15 01:56:52;;;;;;;0.50;0.50;;;;;;;9.91;98.83;98491.09;6061326;23;20066;-81
2023/01/15 01:59:19;;;;;;;1.45;0.50;;;;;;;9.92;98.83;98488.28;6060732;23;20673;-82
2023/01/15 02:01:47;;;;;;;0.68;0.50;;;;;;;9.92;98.98;98496.25;6084350;23;20183;-84
2023/01/15 02:04:19;;;;;;;1.42;0.70;;;;;;;9.92;98.68;98498.03;6039305;23;20404;-82
2023/01/15 02:06:46;;;;;;;0.85;0.50;;;;;;;9.93;98.68;98497.91;6061013;23;20426;-81
2023/01/15 02:09:13;;;;;;;1.20;0.60;;;;;;;9.94;98.77;98486.28;6086831;23;20093;-82
2023/01/15 02:11:39;;;;;;;0.93;0.60;;;;;;;9.95;98.76;98485.31;6062145;23;20470;-82
2023/01/15 02:14:13;;;;;;;0.70;0.60;;;;;;;9.93;98.70;98482.00;6061958;23;20025;-82
2023/01/15 02:17:12;;;;;;;0.50;0.50;;;;;;;9.96;98.43;98472.88;6061177;23;20105;-82
2023/01/15 02:19:40;;;;;;;0.45;0.40;;;;;;;9.94;98.66;98465.06;6032170;23;20029;-83
2023/01/15 02:22:54;;;;;;;2.25;0.70;;;;;;;9.93;98.78;98454.66;6200958;23;20464;-82
2023/01/15 02:25:26;;;;;;;0.63;0.50;;;;;;;9.96;98.92;98476.34;5976100;23;20029;-83
2023/01/15 02:28:03;;;;;;;0.55;0.43;;;;;;;9.95;98.61;98468.56;6176807;23;20412;-82
2023/01/15 02:30:37;;;;;;;0.40;0.35;;;;;;;9.98;99.29;98455.81;6130944;23;20052;-83
2023/01/15 02:33:10;;;;;;;1.20;0.30;;;;;;;9.97;99.22;98458.59;6095470;23;20025;-82
2023/01/15 02:35:42;;;;;;;0.30;0.30;;;;;;;9.98;98.89;98453.16;6072316;23;20020;-82
2023/01/15 02:38:14;;;;;;;1.10;0.30;;;;;;;10.00;99.56;98453.00;6144224;23;20021;-82
2023/01/15 02:40:44;;;;;;;0.53;0.40;;;;;;;9.94;100.00;98443.03;6096823;23;20522;-83
2023/01/15 02:43:12;;;;;;;0.20;0.20;;;;;;;10.03;99.08;98436.75;6095148;23;20024;-82
2023/01/15 02:45:41;;;;;;;1.17;0.40;;;;;;;10.04;99.09;98456.13;6095152;23;20103;-82
2023/01/15 02:48:13;;;;;;;2.83;0.40;;;;;;;10.05;99.19;98445.38;6096462;23;20024;-83
2023/01/15 02:50:47;;;;;;;1.08;0.40;;;;;;;10.08;99.38;98445.03;6143895;23;20032;-82
2023/01/15 02:53:20;;;;;;;0.45;0.43;;;;;;;10.09;98.92;98453.81;6119874;23;20017;-82
2023/01/15 02:55:49;;;;;;;0.30;0.30;;;;;;;10.08;99.49;98433.59;6120234;23;20048;-83
2023/01/15 02:58:23;;;;;;;1.55;0.40;;;;;;;10.08;98.76;98447.69;6095451;23;20021;-83
2023/01/15 03:00:54;;;;;;;0.28;0.28;;;;;;;10.09;98.94;98446.69;6152620;23;20036;-82
2023/01/15 03:04:05;;;;;;;0.30;0.30;;;;;;;10.05;99.32;98437.41;6105252;23;20676;-83
2023/01/15 03:06:55;;;;;;;0.30;0.30;;;;;;;10.03;98.97;98430.63;5984635;23;20026;-82
2023/01/15 03:09:22;;;;;;;0.20;0.20;;;;;;;10.11;99.21;98426.13;6109095;23;20028;-82
2023/01/15 03:12:01;;;;;;;1.67;0.32;;;;;;;10.08;98.76;98415.03;6177765;23;20020;-82
2023/01/15 03:14:42;;;;;;;;;;;;;;;9.96;99.44;98419.84;6175618;23;20027;-82
2023/01/15 03:17:22;;;;;;;0.30;0.30;;;;;;;10.04;98.74;98413.69;6127743;23;20333;-82
2023/01/15 03:19:54;;;;;;;3.60;0.50;;;;;;;10.12;99.01;98414.50;6200025;23;20012;-82
2023/01/15 03:22:27;;;;;;;1.83;0.28;;;;;;;10.09;99.57;98412.19;6129046;23;20032;-82
2023/01/15 03:24:55;;;;;;;;;;;;;;;9.98;100.00;98412.56;6153929;23;20504;-82
2023/01/15 03:27:23;;;;;;;0.20;0.20;;;;;;;10.11;100.00;98420.00;6177264;23;19916;-82
2023/01/15 03:30:00;;;;;;;0.55;0.30;;;;;;;10.12;99.41;98414.50;6153538;23;20039;-82
2023/01/15 03:32:27;;;;;;;0.20;0.20;;;;;;;10.13;99.05;98405.56;6128115;23;20099;-82
2023/01/15 03:34:55;;;;;;;0.20;0.20;;;;;;;10.14;99.41;98415.19;6153018;23;20522;-82
2023/01/15 03:37:24;;;;;;;0.40;0.30;;;;;;;10.15;99.42;98403.59;6152402;23;20028;-82
2023/01/15 03:39:53;;;;;;;0.63;0.30;;;;;;;10.15;99.14;98405.38;6153187;23;20024;-82
2023/01/15 03:43:39;;;;;;;0.47;0.30;;;;;;;10.08;99.63;98413.22;6152848;23;20032;-82
2023/01/15 03:45:41;;;;;;;1.00;0.40;;;;;;;10.15;99.87;98408.03;6089103;23;20020;-83
2023/01/15 03:48:25;;;;;;;0.32;0.30;;;;;;;10.10;99.97;98405.06;6128626;23;20020;-82
2023/01/15 03:51:08;;;;;;;0.15;0.15;;;;;;;10.08;100.00;98407.91;6105165;23;20071;-82
2023/01/15 03:53:43;;;;;;;0.40;0.30;;;;;;;10.12;100.00;98408.38;6174905;23;20020;-82
2023/01/15 03:56:18;;;;;;;1.33;1.20;;;;;;;10.14;100.00;98423.13;6102823;23;20028;-83
2023/01/15 03:58:59;;;;;;;0.45;0.40;;;;;;;10.11;100.00;98415.50;6152352;23;20031;-82
2023/01/15 04:01:41;;;;;;;0.60;0.40;;;;;;;10.14;100.00;98417.00;6043132;23;20025;-82
2023/01/15 04:04:09;;;;;;;0.57;0.55;;;;;;;10.17;100.00;98419.31;6150211;23;20021;-82
2023/01/15 04:06:37;;;;;;;0.43;0.43;;;;;;;10.17;100.00;98412.19;6151436;23;20095;-82
2023/01/15 04:09:07;;;;;;;0.85;0.40;;;;;;;10.17;100.00;98419.31;6126943;23;20031;-82
2023/01/15 04:11:34;;;;;;;0.75;0.40;;;;;;;10.17;100.00;98428.09;6152573;23;20025;-83
2023/01/15 04:14:04;;;;;;;1.88;0.50;;;;;;;10.17;100.00;98436.06;6176833;23;20025;-84
2023/01/15 04:16:43;;;;;;;0.60;0.30;;;;;;;10.16;100.00;98439.72;6181577;23;20028;-82
2023/01/15 04:19:11;;;;;;;0.75;0.43;;;;;;;10.18;100.00;98458.13;6120338;23;20017;-82
2023/01/15 04:21:45;;;;;;;1.48;0.70;;;;;;;10.18;100.00;98479.34;6200978;23;20414;-83
2023/01/15 04:24:12;;;;;;;0.35;0.35;;;;;;;10.09;100.00;98473.19;6128904;23;20023;-83
2023/01/15 04:26:39;;;;;;;0.30;0.30;;;;;;;10.04;100.00;98472.88;6126607;23;20027;-83
2023/01/15 04:29:06;;;;;;;0.68;0.30;;;;;;;10.06;100.00;98473.53;6176099;23;20032;-83
2023/01/15 04:31:34;;;;;;;1.33;0.28;;;;;;;9.99;100.00;98483.97;6128541;23;20078;-82
2023/01/15 04:34:02;;;;;;;0.25;0.25;;;;;;;9.94;100.00;98501.38;6119515;23;20031;-82
2023/01/15 04:36:29;;;;;;;0.20;0.20;;;;;;;9.89;100.00;98498.38;6148026;23;20044;-82
2023/01/15 04:38:58;;;;;;;0.20;0.20;;;;;;;9.71;99.24;98504.66;6152662;23;20012;-83
2023/01/15 04:44:10;;;;;;;0.38;0.20;;;;;;;9.64;98.07;98503.66;6178138;23;20021;-82
2023/01/15 04:46:40;;;;;;;1.80;0.20;;;;;;;9.61;97.72;98511.09;6126932;23;20015;-82
2023/01/15 04:49:15;;;;;;;0.45;0.32;;;;;;;9.48;97.09;98507.09;6126086;23;20488;-82
2023/01/15 04:51:42;;;;;;;0.22;0.22;;;;;;;9.47;97.47;98509.91;6126474;23;20017;-83
2023/01/15 04:54:11;;;;;;;0.40;0.40;;;;;;;9.50;97.61;98518.34;6102444;23;20024;-83
2023/01/15 04:56:43;;;;;;;0.22;0.22;;;;;;;9.46;97.57;98511.72;6151560;23;20043;-82
2023/01/15 04:59:10;;;;;;;1.23;0.80;;;;;;;9.48;97.70;98506.25;6100832;23;20449;-83
2023/01/15 05:01:37;;;;;;;2.75;0.40;;;;;;;9.42;97.36;98515.69;6177566;23;20028;-82
2023/01/15 05:04:04;;;;;;;0.20;0.20;;;;;;;9.47;97.95;98520.50;6127599;23;20528;-82
2023/01/15 05:06:30;;;;;;;3.05;0.50;;;;;;;9.45;98.39;98525.97;6176693;23;20142;-84
2023/01/15 05:08:58;;;;;;;0.20;0.20;;;;;;;9.45;98.09;98525.13;6176720;23;20013;-83
2023/01/15 05:11:26;;;;;;;0.20;0.20;;;;;;;9.45;98.83;98539.22;6176934;23;20087;-82
2023/01/15 05:13:53;;;;;;;1.95;0.20;;;;;;;9.45;98.67;98535.72;6151385;23;20016;-83
2023/01/15 05:16:25;;;;;;;0.30;0.30;;;;;;;9.45;98.18;98541.03;6151947;23;20020;-82
2023/01/15 05:18:54;;;;;;;1.30;0.20;;;;;;;9.44;97.91;98553.44;6174416;23;20024;-83
2023/01/15 05:21:30;;;;;;;1.17;0.22;;;;;;;9.42;97.40;98560.72;6151896;23;20032;-82
2023/01/15 05:23:59;;;;;;;0.30;0.30;;;;;;;9.43;98.29;98565.03;6151307;23;20025;-82
2023/01/15 05:26:27;;;;;;;1.65;0.30;;;;;;;9.47;97.98;98570.84;6151812;23;20017;-83
2023/01/15 05:28:55;;;;;;;0.30;0.30;;;;;;;9.44;98.25;98573.78;6175268;23;20028;-82
2023/01/15 05:31:22;;;;;;;0.30;0.22;;;;;;;9.43;98.68;98582.75;6152524;23;20020;-82
2023/01/15 05:33:50;;;;;;;0.55;0.30;;;;;;;9.41;98.84;98574.94;6152183;23;20746;-82
2023/01/15 05:36:20;;;;;;;0.30;0.30;;;;;;;9.41;98.64;98582.06;6151912;23;20032;-82
2023/01/15 05:38:46;;;;;;;0.28;0.22;;;;;;;9.40;99.18;98578.59;6127002;23;20020;-82
2023/01/15 05:44:06;;;;;;;0.20;0.20;;;;;;;9.37;99.25;98589.50;6200937;22;20075;-82
2023/01/15 05:46:34;;;;;;;1.38;0.40;;;;;;;9.37;99.19;98596.63;6151389;23;20021;-82
2023/01/15 05:49:03;;;;;;;1.65;0.50;;;;;;;9.40;98.58;98612.22;6176296;23;20016;-82
2023/01/15 05:51:30;;;;;;;1.08;0.57;;;;;;;9.37;99.01;98605.41;6151305;23;20024;-82
2023/01/15 05:53:57;;;;;;;0.52;0.50;;;;;;;9.34;98.80;98611.03;6150922;23;20028;-82
2023/01/15 05:56:24;;;;;;;1.40;0.40;;;;;;;9.31;98.80;98609.53;6151485;23;20337;-82
2023/01/15 05:58:50;;;;;;;0.65;0.50;;;;;;;9.36;98.40;98606.38;6150866;23;20031;-82
2023/01/15 06:01:17;;;;;;;0.90;0.50;;;;;;;9.32;99.24;98605.06;6127567;23;20067;-83
2023/01/15 06:03:45;;;;;;;1.90;0.50;;;;;;;9.32;99.35;98626.25;6151656;23;20096;-82
2023/01/15 06:06:17;;;;;;;0.50;0.45;;;;;;;9.27;98.79;98637.31;6151820;23;20352;-83
2023/01/15 06:08:44;;;;;;;0.50;0.50;;;;;;;9.28;99.27;98632.84;6151228;23;20520;-82
2023/01/15 06:11:11;;;;;;;1.77;0.70;;;;;;;9.29;99.03;98626.56;6176066;23;20103;-82
2023/01/15 06:13:38;;;;;;;2.25;1.10;;;;;;;9.31;98.78;98635.16;6176039;23;20471;-82
2023/01/15 06:16:06;;;;;;;3.10;1.45;;;;;;;9.30;98.80;98630.88;6151427;23;20027;-82
2023/01/15 06:18:34;;;;;;;1.65;1.02;;;;;;;9.31;98.47;98633.38;6151114;23;20511;-83
2023/01/15 06:21:05;;;;;;;1.75;0.68;;;;;;;9.27;97.40;98629.38;6176181;23;20024;-82
2023/01/15 06:23:35;;;;;;;0.68;0.52;;;;;;;9.30;97.96;98633.50;6174798;23;20190;-83
2023/01/15 06:26:04;;;;;;;0.88;0.70;;;;;;;9.29;97.46;98640.63;6127758;23;20024;-82
2023/01/15 06:28:32;;;;;;;0.65;0.60;;;;;;;9.30;97.32;98647.59;6125852;23;20100;-83
2023/01/15 06:30:59;;;;;;;1.00;0.70;;;;;;;9.29;96.80;98655.72;6127527;23;20029;-82
2023/01/15 06:33:25;;;;;;;1.52;0.90;;;;;;;9.32;96.50;98658.88;6176533;23;20353;-82
2023/01/15 06:35:52;;;;;;;3.17;1.20;;;;;;;9.32;96.34;98664.16;6128370;23;20452;-82
2023/01/15 06:38:19;;;;;;;1.85;1.10;;;;;;;9.27;96.32;98663.81;6128714;23;20020;-82
2023/01/15 06:40:46;;;;;;;1.90;1.00;;;;;;;9.28;96.18;98675.22;6152834;23;20029;-82
2023/01/15 06:47:19;;;;;;;1.67;1.10;;;;;;;9.21;96.60;98696.22;6154294;23;20437;-82
2023/01/15 06:48:51;;;;;;;2.93;1.10;;;;;;;9.19;96.45;98700.84;6132514;23;20027;-82
2023/01/15 06:51:19;;;;;;;1.95;1.20;;;;;;;9.20;95.79;98699.00;6129277;23;20047;-82
2023/01/15 06:53:46;;;;;;;1.20;1.05;;;;;;;9.22;95.40;98699.69;6128206;23;20024;-83
2023/01/15 06:56:13;;;;;;;3.75;1.15;;;;;;;9.20;95.67;98712.25;6154783;23;20024;-82
2023/01/15 06:58:41;;;;;;;1.88;1.25;;;;;;;9.17;94.72;98713.41;6152729;23;20017;-82
2023/01/15 07:01:12;;;;;;;2.72;0.77;;;;;;;9.13;94.55;98725.28;6153136;23;20449;-82
2023/01/15 07:03:40;;;;;;;1.50;1.02;;;;;;;9.16;95.22;98743.53;6177221;23;20032;-82
2023/01/15 07:06:11;;;;;;;1.58;1.00;;;;;;;9.13;94.75;98738.50;6128099;23;20025;-82
2023/01/15 07:08:39;;;;;;;3.20;1.60;;;;;;;9.15;95.15;98733.91;6177411;23;20020;-82
2023/01/15 07:11:07;;;;;;;1.20;0.85;;;;;;;9.17;94.47;98737.22;6178388;23;20101;-82
2023/01/15 07:13:34;;;;;;;1.80;0.80;;;;;;;9.15;94.21;98748.97;6152126;23;20079;-82
2023/01/15 07:16:01;;;;;;;2.72;0.75;;;;;;;9.13;93.93;98767.66;6153852;23;20024;-82
2023/01/15 07:18:29;;;;;;;0.85;0.70;;;;;;;9.13;94.46;98783.53;6152665;23;20095;-83
2023/01/15 07:20:57;;;;;;;0.70;0.70;;;;;;;9.12;94.14;98782.72;6153016;23;20017;-82
2023/01/15 07:23:24;;;;;;;1.05;0.77;;;;;;;9.11;93.61;98774.94;6152156;23;20024;-82
2023/01/15 07:25:52;;;;;;;0.43;0.43;;;;;;;9.12;92.98;98795.94;6129345;23;20417;-82
2023/01/15 07:28:20;;;;;;;0.82;0.75;;;;;;;9.08;93.08;98796.41;6126037;23;20090;-83
2023/01/15 07:30:46;;;;;;;4.15;1.70;;;;;;;9.03;92.97;98777.47;6129509;23;20039;-83
2023/01/15 07:33:13;;;;;;;3.33;1.77;;;;;;;9.01;92.77;98780.31;6176416;23;20032;-82
2023/01/15 07:35:40;;;;;;;1.80;0.98;;;;;;;9.03;91.92;98796.03;6151992;23;20030;-82
2023/01/15 07:38:07;;;;;;;0.50;0.50;;;;;;;9.00;91.87;98810.41;6152892;23;20094;-83
2023/01/15 07:40:34;;;;;;;1.13;0.80;;;;;;;8.97;91.88;98813.34;6127888;23;20083;-82
2023/01/15 07:51:19;;;;;;;1.08;0.60;;;;;;;8.87;91.27;98808.13;6179941;23;20020;-82
2023/01/15 07:53:45;;;;;;;0.60;0.60;;;;;;;8.88;91.89;98795.75;6177558;23;20079;-82
2023/01/15 07:56:12;;;;;;;1.15;0.68;;;;;;;8.88;92.49;98803.69;6176424;23;20021;-82
2023/01/15 07:58:39;;;;;;;0.50;0.50;;;;;;;8.87;92.03;98825.81;6127472;23;20024;-82
2023/01/15 08:01:06;;;;;;;1.20;0.50;;;;;;;8.85;91.48;98815.41;6128986;23;20111;-82
2023/01/15 08:03:32;;;;;;;2.55;0.50;;;;;;;8.82;92.38;98820.16;6152571;23;20056;-82
2023/01/15 08:05:59;;;;;;;0.43;0.40;;;;;;;8.82;92.72;98834.22;6152520;23;20099;-82
2023/01/15 08:08:26;;;;;;;1.95;1.30;;;;;;;8.86;92.66;98829.47;6152352;23;20334;-81
2023/01/15 08:16:23;;;;;;;0.95;0.60;;;;;;;8.85;91.27;98849.81;6178651;23;20027;-82
2023/01/15 08:18:50;;;;;;;1.88;1.00;;;;;;;8.88;90.87;98861.94;6152598;23;20025;-82
2023/01/15 08:21:18;;;;;;;1.52;0.80;;;;;;;8.85;90.40;98860.41;6151691;23;20028;-82
2023/01/15 08:23:46;;;;;;;1.75;0.60;;;;;;;8.83;90.10;98869.47;6177273;23;20025;-82
2023/01/15 08:26:13;;;;;;;2.42;0.60;;;;;;;8.87;89.26;98871.66;6128364;23;20024;-81
2023/01/15 08:28:40;;;;;;;1.80;0.70;;;;;;;8.88;89.51;98873.34;6126385;23;20024;-82
2023/01/15 08:31:07;;;;;;;0.90;0.60;;;;;;;8.83;88.43;98877.41;6153274;23;20032;-83
2023/01/15 08:33:34;;;;;;;0.40;0.38;;;;;;;8.81;88.20;98868.78;6128505;23;20016;-82
2023/01/15 08:36:01;;;;;;;0.32;0.32;;;;;;;8.81;88.19;98871.44;6177229;23;20407;-82
2023/01/15 08:38:28;;;;;;;1.08;0.60;;;;;;;8.79;88.58;98876.88;6127062;23;20028;-82
2023/01/15 08:40:57;;;;;;;1.75;0.50;;;;;;;8.75;87.90;98875.50;6152651;23;20024;-82
2023/01/15 08:43:30;;;;;;;0.40;0.40;;;;;;;8.79;87.32;98895.41;6127850;23;20027;-82
2023/01/15 08:46:01;;;;;;;1.67;0.73;;;;;;;8.71;86.81;98903.25;6152629;23;20020;-82
2023/01/15 08:48:29;;;;;;;1.98;0.40;;;;;;;8.65;87.59;98886.16;6049023;23;20048;-82
2023/01/15 08:50:56;;;;;;;2.33;0.70;;;;;;;8.61;88.58;98900.63;6086361;23;20022;-82
2023/01/15 08:53:23;;;;;;;0.65;0.50;;;;;;;8.63;89.17;98903.16;6060075;23;20018;-82
2023/01/15 08:55:50;;;;;;;1.60;0.73;;;;;;;8.65;88.69;98911.75;6086715;23;25468;-82
2023/01/15 08:58:17;;;;;;;2.17;0.68;;;;;;;8.66;88.74;98927.50;6086228;23;20014;-82
2023/01/15 09:00:43;;;;;;;1.25;0.80;;;;;;;8.66;88.71;98914.25;6061039;23;20038;-82
2023/01/15 09:03:10;;;;;;;2.60;1.30;;;;;;;8.63;88.75;98919.84;6085945;23;20040;-81
2023/01/15 09:05:37;;;;;;;5.25;1.05;;;;;;;8.59;89.00;98921.09;6085062;23;20029;-82
2023/01/15 09:08:05;;;;;;;4.07;1.23;;;;;;;8.65;87.98;98923.19;6060612;23;20033;-82
2023/01/15 09:10:32;;;;;;;2.22;0.88;;;;;;;8.68;88.12;98927.38;6085514;23;20034;-82
2023/01/15 09:13:03;;;;;;;8.50;2.92;;;;;;;8.60;87.70;98924.59;6086065;23;20548;-82
2023/01/15 09:15:32;;;;;;;4.00;1.15;;;;;;;8.55;88.29;98930.34;6083556;23;20085;-82
2023/01/15 09:17:59;;;;;;;2.80;1.65;;;;;;;8.57;88.51;98933.66;6083631;23;20084;-82
2023/01/15 09:20:26;;;;;;;3.05;1.65;;;;;;;8.60;88.21;98930.75;6138346;23;20031;-82
2023/01/15 09:22:52;;;;;;;5.82;2.38;;;;;;;8.58;88.08;98942.44;6148930;23;20021;-82
2023/01/15 09:25:22;;;;;;;5.53;2.20;;;;;;;8.59;87.92;98947.56;6149660;23;20024;-82
2023/01/15 09:27:49;;;;;;;3.53;1.60;;;;;;;8.59;87.75;98957.34;6173134;23;20020;-82
2023/01/15 09:30:19;;;;;;;2.65;1.10;;;;;;;8.61;87.23;98952.72;6150897;23;20051;-82
2023/01/15 09:32:46;;;;;;;2.72;1.67;;;;;;;8.68;87.08;98953.81;6175373;23;20028;-82
2023/01/15 09:35:13;;;;;;;3.25;1.73;;;;;;;8.68;86.80;98967.06;6176696;23;20013;-82
2023/01/15 09:37:39;;;;;;;2.10;1.50;;;;;;;8.63;86.35;98961.38;6175619;23;20024;-82
2023/01/15 09:40:08;;;;;;;1.95;1.38;;;;;;;8.62;86.31;98967.63;6175360;23;20326;-82
2023/01/15 09:42:35;;;;;;;1.67;1.10;;;;;;;8.60;86.38;98974.88;6175849;23;20432;-83
2023/01/15 09:45:30;;;;;;;2.75;1.00;;;;;;;8.46;85.23;98979.66;6174085;23;20464;-82
2023/01/15 09:48:08;;;;;;;4.22;1.42;;;;;;;8.45;84.43;98993.84;6171776;23;20021;-81
2023/01/15 09:51:08;;;;;;;2.90;1.40;;;;;;;8.46;84.31;99007.91;6150875;23;20076;-82
2023/01/15 09:53:53;;;;;;;2.15;1.83;;;;;;;8.44;84.83;99005.41;6135511;23;20082;-82
2023/01/15 09:56:28;;;;;;;2.80;1.23;;;;;;;8.50;84.96;98996.09;6101653;23;20020;-82
2023/01/15 09:58:56;;;;;;;4.25;1.52;;;;;;;8.55;85.62;99008.88;6149908;23;20020;-82
2023/01/15 10:01:26;;;;;;;2.25;0.80;;;;;;;8.62;84.53;99016.09;6150344;23;20681;-82
2023/01/15 10:04:06;;;;;;;2.40;1.17;;;;;;;8.43;84.56;99008.22;6126908;23;20456;-82
2023/01/15 10:06:40;;;;;;;1.27;0.98;;;;;;;8.40;84.35;99008.50;6148485;23;20020;-82
2023/01/15 10:09:11;;;;;;;3.58;1.00;;;;;;;8.47;84.92;99018.38;6179315;23;20561;-82
2023/01/15 10:14:37;;;;;;;2.42;1.30;;;;;;;8.47;84.30;99030.75;6155203;23;20028;-82
2023/01/15 10:17:17;;;;;;;2.80;1.10;;;;;;;8.47;84.69;99031.59;6173681;23;20028;-82
2023/01/15 10:19:44;;;;;;;2.65;1.20;;;;;;;8.49;84.65;99036.72;6100320;23;20036;-82
2023/01/15 10:22:39;;;;;;;3.42;1.23;;;;;;;8.35;83.17;99050.38;6175335;23;20028;-81
2023/01/15 10:25:14;;;;;;;2.50;1.67;;;;;;;8.42;83.67;99046.22;6172208;23;20029;-81
2023/01/15 10:27:44;;;;;;;3.70;1.55;;;;;;;8.46;84.06;99053.72;6129000;23;20052;-81
2023/01/15 10:30:41;;;;;;;1.83;1.48;;;;;;;8.26;83.13;99039.66;6118732;23;20084;-81
2023/01/15 10:33:23;;;;;;;3.95;1.77;;;;;;;8.39;83.12;99049.09;6137666;23;20020;-82
2023/01/15 10:35:57;;;;;;;3.10;1.80;;;;;;;8.34;83.69;99041.59;6096240;23;20029;-82
2023/01/15 10:38:31;;;;;;;4.47;3.28;;;;;;;8.37;83.86;99051.06;6142227;23;20040;-82
2023/01/15 10:41:45;;;;;;;2.17;1.50;;;;;;;8.35;82.75;99051.22;6116970;23;20025;-82
2023/01/15 10:44:40;;;;;;;2.05;1.30;;;;;;;8.31;82.46;99047.16;6023690;23;20397;-82
2023/01/15 10:47:11;;;;;;;3.45;1.58;;;;;;;8.37;82.97;99066.94;6119656;23;20035;-82
2023/01/15 10:49:40;;;;;;;5.13;2.55;;;;;;;8.37;83.36;99049.25;6144855;23;20104;-82
2023/01/15 10:52:30;;;;;;;2.90;1.77;;;;;;;8.30;82.21;99050.81;6119904;23;20083;-83
2023/01/15 10:55:18;;;;;;;2.45;0.90;;;;;;;8.24;80.92;99059.28;6167077;23;20128;-82
2023/01/15 10:58:09;;;;;;;2.13;1.25;;;;;;;8.23;81.80;99068.19;6146122;23;20025;-83
2023/01/15 11:00:38;;;;;;;2.45;1.83;;;;;;;8.34;82.57;99051.34;6101454;23;20020;-82
2023/01/15 11:03:13;;;;;;;2.30;0.80;;;;;;;8.33;81.64;99055.81;6125494;23;20026;-82
2023/01/15 11:05:41;;;;;;;2.13;1.40;;;;;;;8.37;82.41;99064.28;6173500;23;20025;-81
2023/01/15 11:08:14;;;;;;;1.48;0.85;;;;;;;8.34;81.69;99056.63;6149318;23;20025;-82
2023/01/15 11:19:36;;;;;;;2.58;1.30;;;;;;;8.24;81.56;99081.28;6176354;23;20039;-83
2023/01/15 11:22:10;;;;;;;3.83;1.42;;;;;;;8.23;82.60;99084.06;6176829;23;20020;-83
2023/01/15 11:24:44;;;;;;;15.27;8.57;;;;;;;8.22;81.42;99083.25;6151408;23;20071;-82
2023/01/15 11:27:16;;;;;;;5.38;2.50;;;;;;;8.24;81.60;99080.44;6174020;23;20317;-83
2023/01/15 11:29:44;;;;;;;7.75;4.43;;;;;;;8.30;81.92;99079.06;6176317;23;20024;-83
2023/01/15 11:32:28;;;;;;;3.05;2.30;;;;;;;8.16;79.70;99067.06;6176399;23;20027;-82
2023/01/15 11:35:00;;;;;;;3.50;1.77;;;;;;;8.19;80.13;99072.94;6149794;23;20407;-83
2023/01/15 11:37:29;;;;;;;4.10;1.90;;;;;;;8.27;80.86;99085.47;6151115;23;20517;-82
2023/01/15 11:40:03;;;;;;;4.13;2.00;;;;;;;8.30;80.81;99073.78;6102537;23;20032;-81
2023/01/15 11:51:12;;;;;;;2.45;1.00;;;;;;;8.24;77.99;99080.44;6102865;23;20020;-81
2023/01/15 11:53:48;;;;;;;3.45;1.00;;;;;;;8.23;76.88;99068.19;6151276;23;20025;-82
2023/01/15 11:56:18;;;;;;;2.95;0.85;;;;;;;8.25;78.70;99074.19;6125781;23;20021;-82
2023/01/15 11:58:47;;;;;;;3.85;1.60;;;;;;;8.23;78.94;99084.91;6126137;23;20028;-82
2023/01/15 12:02:03;;;;;;;1.73;1.00;;;;;;;8.05;79.41;99091.84;6127126;23;20158;-83
2023/01/15 12:04:50;;;;;;;2.03;1.52;;;;;;;8.02;79.86;99098.25;6102691;23;20039;-82
2023/01/15 12:07:17;;;;;;;4.68;2.90;;;;;;;8.16;80.43;99091.72;6153302;23;20021;-82
2023/01/15 12:10:02;;;;;;;12.82;4.80;;;;;;;8.10;78.55;99089.63;6151240;23;20029;-82
2023/01/15 12:12:34;;;;;;;12.52;4.65;;;;;;;8.17;79.09;99089.94;6105495;23;20099;-82
2023/01/15 12:15:19;;;;;;;26.90;8.55;;;;;;;8.02;77.45;99090.31;6151321;23;20032;-82
2023/01/15 12:18:08;;;;;;;16.35;5.75;;;;;;;8.04;77.05;99093.66;6148635;23;20029;-82
2023/01/15 12:20:35;;;;;;;11.80;3.95;;;;;;;8.16;78.90;99097.00;6124872;23;20533;-82
2023/01/15 12:23:21;;;;;;;5.10;2.63;;;;;;;8.13;78.49;99088.53;6144007;23;20055;-82
2023/01/15 12:25:55;;;;;;;5.60;2.70;;;;;;;8.03;77.80;99101.72;6103893;23;20024;-82
2023/01/15 12:28:26;;;;;;;13.05;8.02;;;;;;;8.11;77.65;99101.03;6174861;23;20016;-82
2023/01/15 12:31:12;;;;;;;10.23;9.07;;;;;;;8.00;76.08;99094.91;6151613;23;20017;-82
2023/01/15 12:33:44;;;;;;;5.28;4.22;;;;;;;8.10;77.28;99100.22;6196342;23;20035;-82
2023/01/15 12:36:18;;;;;;;4.73;4.33;;;;;;;7.99;76.09;99092.41;6174656;23;20017;-81
2023/01/15 12:38:53;;;;;;;5.50;4.38;;;;;;;8.05;77.45;99097.97;6175276;23;20420;-81
2023/01/15 12:44:59;;;;;;;7.18;2.75;;;;;;;7.95;76.00;99091.84;6149068;23;20020;-81
2023/01/15 12:47:13;;;;;;;3.55;1.23;;;;;;;8.03;75.92;99091.97;6084116;23;20099;-82